createdAt,value
2017-11-04T00:01:04.338Z,82.30
2017-11-04T00:03:31.959Z,96.40
2017-11-04T00:05:59.506Z,101.60
2017-11-04T00:08:27.051Z,63.17
2017-11-04T00:10:55.393Z,60.40
2017-11-04T00:13:22.985Z,86.13
2017-11-04T00:15:51.290Z,59.67
2017-11-04T00:18:18.870Z,31.60
2017-11-04T00:20:46.414Z,78.67
2017-11-04T00:23:14.077Z,69.47
2017-11-04T00:25:41.617Z,89.50
2017-11-04T00:28:09.210Z,70.80
2017-11-04T00:30:36.755Z,70.17
2017-11-04T00:33:04.301Z,109.13
2017-11-04T00:35:31.884Z,255.80
2017-11-04T00:37:59.427Z,198.07
2017-11-04T00:40:27.022Z,170.37
2017-11-04T00:42:54.562Z,146.03
2017-11-04T00:45:22.144Z,119.00
2017-11-04T00:47:49.680Z,121.20
2017-11-04T00:50:17.264Z,86.47
2017-11-04T00:52:44.802Z,90.83
2017-11-04T00:55:12.386Z,112.43
2017-11-04T00:57:39.937Z,78.50
2017-11-04T01:00:07.507Z,53.10
2017-11-04T01:02:35.050Z,41.50
2017-11-04T01:05:02.630Z,53.83
2017-11-04T01:07:30.174Z,62.67
2017-11-04T01:09:57.780Z,31.50
2017-11-04T01:12:26.090Z,35.83
2017-11-04T01:14:53.674Z,36.93
2017-11-04T01:17:21.218Z,43.50
2017-11-04T01:19:48.794Z,28.33
2017-11-04T01:22:16.341Z,43.83
2017-11-04T01:24:43.932Z,66.03
2017-11-04T01:27:11.472Z,39.73
2017-11-04T01:29:39.049Z,90.37
2017-11-04T01:32:07.365Z,68.80
2017-11-04T01:34:34.944Z,79.30
2017-11-04T01:37:02.488Z,64.93
2017-11-04T01:39:30.078Z,84.35
2017-11-04T01:41:57.622Z,53.00
2017-11-04T01:44:25.196Z,57.37
2017-11-04T01:46:52.733Z,72.60
2017-11-04T01:49:20.314Z,48.97
2017-11-04T01:51:47.863Z,75.07
2017-11-04T01:54:14.961Z,51.57
2017-11-04T01:56:42.506Z,76.10
2017-11-04T01:59:10.099Z,25.07
2017-11-04T02:01:38.416Z,23.13
2017-11-04T02:04:05.992Z,34.27
2017-11-04T02:06:33.529Z,31.33
2017-11-04T02:09:01.113Z,58.47
2017-11-04T02:11:28.653Z,33.80
2017-11-04T02:13:56.243Z,37.55
2017-11-04T02:16:23.793Z,35.60
2017-11-04T02:18:51.384Z,39.35
2017-11-04T02:21:18.928Z,22.13
2017-11-04T02:23:46.536Z,34.03
2017-11-04T02:26:14.094Z,29.65
2017-11-04T02:28:41.634Z,39.07
2017-11-04T02:31:09.990Z,36.10
2017-11-04T02:33:37.534Z,28.20
2017-11-04T02:36:05.125Z,41.72
2017-11-04T02:38:33.446Z,40.30
2017-11-04T02:41:01.033Z,36.35
2017-11-04T02:43:28.584Z,32.75
2017-11-04T02:45:56.161Z,56.23
2017-11-04T02:48:23.710Z,41.35
2017-11-04T02:50:51.300Z,35.67
2017-11-04T02:53:19.604Z,59.27
2017-11-04T02:55:47.203Z,48.40
2017-11-04T02:58:14.750Z,67.23
2017-11-04T03:00:42.292Z,74.70
2017-11-04T03:03:09.868Z,63.33
2017-11-04T03:05:37.406Z,43.90
2017-11-04T03:08:05.002Z,57.08
2017-11-04T03:10:32.551Z,53.95
2017-11-04T03:13:00.134Z,42.92
2017-11-04T03:15:27.681Z,54.53
2017-11-04T03:17:55.266Z,24.10
2017-11-04T03:20:22.866Z,24.43
2017-11-04T03:22:50.415Z,21.40
2017-11-04T03:25:18.719Z,23.07
2017-11-04T03:27:46.303Z,16.17
2017-11-04T03:30:13.914Z,12.45
2017-11-04T03:32:42.217Z,17.63
2017-11-04T03:35:09.754Z,17.93
2017-11-04T03:37:37.329Z,20.93
2017-11-04T03:40:04.875Z,11.32
2017-11-04T03:42:32.452Z,21.77
2017-11-04T03:45:00.000Z,22.20
2017-11-04T03:47:27.588Z,15.77
2017-11-04T03:49:55.126Z,16.97
2017-11-04T03:52:22.704Z,27.03
2017-11-04T03:54:50.246Z,12.00
2017-11-04T03:57:17.820Z,22.63
2017-11-04T03:59:45.353Z,20.63
2017-11-04T04:02:12.951Z,36.47
2017-11-04T04:04:40.506Z,51.03
2017-11-04T04:07:08.051Z,70.50
2017-11-04T04:09:35.636Z,39.95
2017-11-04T04:12:03.186Z,81.32
2017-11-04T04:14:30.772Z,107.87
2017-11-04T04:16:58.323Z,46.40
2017-11-04T04:19:25.905Z,29.57
2017-11-04T04:21:54.249Z,25.20
2017-11-04T04:24:21.798Z,21.00
2017-11-04T04:26:49.377Z,15.80
2017-11-04T04:29:16.921Z,34.28
2017-11-04T04:31:44.509Z,28.27
2017-11-04T04:34:12.093Z,29.37
2017-11-04T04:36:40.399Z,68.10
2017-11-04T04:39:08.078Z,28.37
2017-11-04T04:41:35.653Z,20.37
2017-11-04T04:44:03.202Z,9.38
2017-11-04T04:46:30.776Z,28.65
2017-11-04T04:48:58.320Z,25.93
2017-11-04T04:51:25.902Z,11.40
2017-11-04T04:53:53.450Z,16.60
2017-11-04T04:56:21.016Z,50.50
2017-11-04T04:58:48.593Z,36.85
2017-11-04T05:01:16.294Z,27.87
2017-11-04T05:03:43.837Z,18.17
2017-11-04T05:06:12.189Z,18.05
2017-11-04T05:08:39.773Z,9.73
2017-11-04T05:11:08.091Z,7.65
2017-11-04T05:13:35.634Z,7.83
2017-11-04T05:16:03.214Z,8.52
2017-11-04T05:18:30.753Z,8.30
2017-11-04T05:20:58.426Z,7.90
2017-11-04T05:23:26.038Z,7.90
2017-11-04T05:25:54.414Z,7.90
2017-11-04T05:28:23.589Z,7.62
2017-11-04T05:30:51.340Z,8.25
2017-11-04T05:33:19.209Z,10.57
2017-11-04T05:35:46.816Z,12.40
2017-11-04T05:38:15.279Z,14.68
2017-11-04T05:40:43.742Z,12.00
2017-11-04T05:43:11.649Z,10.02
2017-11-04T05:45:40.486Z,9.02
2017-11-04T05:48:08.109Z,8.97
2017-11-04T05:50:35.834Z,9.95
2017-11-04T05:53:03.681Z,9.57
2017-11-04T05:55:31.320Z,7.65
2017-11-04T05:57:59.318Z,9.30
2017-11-04T06:00:26.919Z,7.07
2017-11-04T06:02:54.530Z,7.03
2017-11-04T06:05:22.080Z,7.30
2017-11-04T06:07:49.664Z,8.77
2017-11-04T06:10:17.205Z,8.82
2017-11-04T06:12:44.786Z,8.38
2017-11-04T06:15:12.328Z,8.80
2017-11-04T06:17:39.906Z,11.55
2017-11-04T06:20:07.447Z,7.80
2017-11-04T06:22:35.026Z,7.00
2017-11-04T06:25:02.571Z,7.05
2017-11-04T06:27:30.156Z,8.88
2017-11-04T06:29:59.263Z,8.85
2017-11-04T06:32:26.809Z,11.32
2017-11-04T06:34:54.390Z,11.82
2017-11-04T06:37:22.690Z,7.30
2017-11-04T06:39:50.259Z,8.40
2017-11-04T06:42:17.846Z,11.00
2017-11-04T06:44:45.431Z,9.77
2017-11-04T06:47:12.974Z,7.85
2017-11-04T06:49:40.558Z,8.27
2017-11-04T06:52:08.131Z,7.40
2017-11-04T06:54:36.481Z,10.13
2017-11-04T06:57:04.021Z,8.63
2017-11-04T06:59:31.609Z,9.57
2017-11-04T07:01:59.200Z,12.27
2017-11-04T07:04:27.509Z,10.88
2017-11-04T07:06:55.043Z,12.98
2017-11-04T07:09:22.627Z,9.55
2017-11-04T07:11:50.161Z,10.60
2017-11-04T07:14:18.508Z,11.57
2017-11-04T07:16:46.053Z,10.13
2017-11-04T07:19:13.629Z,10.52
2017-11-04T07:21:41.174Z,11.45
2017-11-04T07:24:08.753Z,12.93
2017-11-04T07:26:36.296Z,12.18
2017-11-04T07:29:03.879Z,9.93
2017-11-04T07:31:31.426Z,10.68
2017-11-04T07:33:59.015Z,13.93
2017-11-04T07:36:27.320Z,15.23
2017-11-04T07:38:54.895Z,9.52
2017-11-04T07:41:22.433Z,10.75
2017-11-04T07:43:50.025Z,11.85
2017-11-04T07:46:17.561Z,16.42
2017-11-04T07:48:45.145Z,11.65
2017-11-04T07:51:12.687Z,12.43
2017-11-04T07:53:40.283Z,11.32
2017-11-04T07:56:07.821Z,12.18
2017-11-04T07:58:35.572Z,13.77
2017-11-04T08:01:03.131Z,11.20
2017-11-04T08:03:30.812Z,15.50
2017-11-04T08:05:58.564Z,13.05
2017-11-04T08:08:26.330Z,15.77
2017-11-04T08:10:53.982Z,14.05
2017-11-04T08:13:21.637Z,12.98
2017-11-04T08:15:49.176Z,20.25
2017-11-04T08:18:16.763Z,15.75
2017-11-04T08:20:44.309Z,15.38
2017-11-04T08:23:11.902Z,12.20
2017-11-04T08:25:39.453Z,17.60
2017-11-04T08:28:07.041Z,13.73
2017-11-04T08:30:34.589Z,16.23
2017-11-04T08:33:02.173Z,15.93
2017-11-04T08:35:29.717Z,17.30
2017-11-04T08:37:57.313Z,16.17
2017-11-04T08:40:25.630Z,18.77
2017-11-04T08:42:53.212Z,27.77
2017-11-04T08:45:20.753Z,19.30
2017-11-04T08:47:48.339Z,14.90
2017-11-04T08:50:15.885Z,15.25
2017-11-04T08:52:43.474Z,17.42
2017-11-04T08:55:11.790Z,18.80
2017-11-04T08:57:39.372Z,19.10
2017-11-04T09:00:06.918Z,20.05
2017-11-04T09:02:34.502Z,17.77
2017-11-04T09:05:02.050Z,16.58
2017-11-04T09:07:29.642Z,20.53
2017-11-04T09:09:57.193Z,21.80
2017-11-04T09:12:24.785Z,20.77
2017-11-04T09:14:53.100Z,21.23
2017-11-04T09:17:20.707Z,23.05
2017-11-04T09:19:48.253Z,24.53
2017-11-04T09:22:15.845Z,26.25
2017-11-04T09:24:44.165Z,23.33
2017-11-04T09:27:11.749Z,31.70
2017-11-04T09:29:39.294Z,25.93
2017-11-04T09:32:06.880Z,31.20
2017-11-04T09:34:34.421Z,43.10
2017-11-04T09:37:02.009Z,35.03
2017-11-04T09:39:30.335Z,29.55
2017-11-04T09:41:57.926Z,35.80
2017-11-04T09:44:25.477Z,31.08
2017-11-04T09:46:53.090Z,31.13
2017-11-04T09:49:20.631Z,29.60
2017-11-04T09:51:49.159Z,23.63
2017-11-04T09:54:16.767Z,25.03
2017-11-04T09:56:44.349Z,20.40
2017-11-04T09:59:11.940Z,27.13
2017-11-04T10:01:39.613Z,28.00
2017-11-04T10:04:07.195Z,26.70
2017-11-04T10:06:34.739Z,23.33
2017-11-04T10:09:02.312Z,22.27
2017-11-04T10:11:29.847Z,17.10
2017-11-04T10:13:57.434Z,21.07
2017-11-04T10:16:24.977Z,21.80
2017-11-04T10:18:52.558Z,25.53
2017-11-04T10:21:20.096Z,25.00
2017-11-04T10:23:47.669Z,11.23
2017-11-04T10:26:15.208Z,11.00
2017-11-04T10:28:42.788Z,11.90
2017-11-04T10:31:10.329Z,33.97
2017-11-04T10:33:37.912Z,58.03
2017-11-04T10:36:05.463Z,121.33
2017-11-04T10:38:33.054Z,47.63
2017-11-04T10:41:01.365Z,15.40
2017-11-04T10:43:28.946Z,25.80
2017-11-04T10:45:56.491Z,38.30
2017-11-04T10:48:24.075Z,6.60
2017-11-04T10:50:51.616Z,7.70
2017-11-04T10:53:19.214Z,9.10
2017-11-04T10:55:46.758Z,4.10
2017-11-04T10:58:14.337Z,4.80
2017-11-04T11:00:41.873Z,5.43
2017-11-04T11:03:09.453Z,9.23
2017-11-04T11:05:36.997Z,7.03
2017-11-04T11:08:04.592Z,6.90
2017-11-04T11:10:32.897Z,5.83
2017-11-04T11:13:00.436Z,4.63
2017-11-04T11:15:28.784Z,34.93
2017-11-04T11:17:57.101Z,32.17
2017-11-04T11:20:24.681Z,52.90
2017-11-04T11:22:52.229Z,13.53
2017-11-04T11:25:19.800Z,9.53
2017-11-04T11:27:47.348Z,8.50
2017-11-04T11:30:14.930Z,15.03
2017-11-04T11:32:42.468Z,6.50
2017-11-04T11:35:10.047Z,9.17
2017-11-04T11:37:37.813Z,5.03
2017-11-04T11:40:05.390Z,10.33
2017-11-04T11:42:32.929Z,5.67
2017-11-04T11:45:00.510Z,11.17
2017-11-04T11:47:28.061Z,25.13
2017-11-04T11:49:55.640Z,25.60
2017-11-04T11:52:23.176Z,10.00
2017-11-04T11:54:50.772Z,9.30
2017-11-04T11:57:18.309Z,20.43
2017-11-04T11:59:45.852Z,42.30
2017-11-04T12:02:13.435Z,21.20
2017-11-04T12:04:41.195Z,14.77
2017-11-04T12:07:08.733Z,10.33
2017-11-04T12:09:36.273Z,10.33
2017-11-04T12:12:03.864Z,8.23
2017-11-04T12:14:31.485Z,9.30
2017-11-04T12:16:59.835Z,9.57
2017-11-04T12:19:27.370Z,5.67
2017-11-04T12:21:54.949Z,8.70
2017-11-04T12:24:22.493Z,5.50
2017-11-04T12:26:50.076Z,5.00
2017-11-04T12:29:17.614Z,5.37
2017-11-04T12:31:45.189Z,8.43
2017-11-04T12:34:12.729Z,6.23
2017-11-04T12:36:40.314Z,9.20
2017-11-04T12:39:07.857Z,7.60
2017-11-04T12:41:35.439Z,7.80
2017-11-04T12:44:02.977Z,6.27
2017-11-04T12:46:30.553Z,8.30
2017-11-04T12:48:58.096Z,8.77
2017-11-04T12:51:25.735Z,7.43
2017-11-04T12:53:53.274Z,8.67
2017-11-04T12:56:20.816Z,6.77
2017-11-04T12:58:49.156Z,9.97
2017-11-04T13:01:16.699Z,8.73
2017-11-04T13:03:44.285Z,7.10
2017-11-04T13:06:11.825Z,7.70
2017-11-04T13:08:39.415Z,8.27
2017-11-04T13:11:06.957Z,9.97
2017-11-04T13:13:34.544Z,8.50
2017-11-04T13:16:02.852Z,8.03
2017-11-04T13:18:30.448Z,5.90
2017-11-04T13:20:57.987Z,9.83
2017-11-04T13:23:25.568Z,7.00
2017-11-04T13:25:53.112Z,7.17
2017-11-04T13:28:20.802Z,7.43
2017-11-04T13:30:48.336Z,5.73
2017-11-04T13:33:15.875Z,7.80
2017-11-04T13:35:43.460Z,5.10
2017-11-04T13:38:10.996Z,6.73
2017-11-04T13:40:38.673Z,10.97
2017-11-04T13:43:06.213Z,6.53
2017-11-04T13:45:33.794Z,7.50
2017-11-04T13:48:01.333Z,5.23
2017-11-04T13:50:28.915Z,5.20
2017-11-04T13:52:56.449Z,5.90
2017-11-04T13:55:24.027Z,5.10
2017-11-04T13:57:51.566Z,7.30
2017-11-04T14:00:19.145Z,5.27
2017-11-04T14:02:46.681Z,7.30
2017-11-04T14:05:14.261Z,6.07
2017-11-04T14:07:41.801Z,6.73
2017-11-04T14:10:09.385Z,7.30
2017-11-04T14:12:36.922Z,7.83
2017-11-04T14:15:05.269Z,8.00
2017-11-04T14:17:32.811Z,4.80
2017-11-04T14:20:00.394Z,11.00
2017-11-04T14:22:28.704Z,6.70
2017-11-04T14:24:56.289Z,4.63
2017-11-04T14:27:23.834Z,6.97
2017-11-04T14:29:51.406Z,7.20
2017-11-04T14:32:18.945Z,7.43
2017-11-04T14:34:46.520Z,6.20
2017-11-04T14:37:14.057Z,5.80
2017-11-04T14:39:41.649Z,6.90
2017-11-04T14:42:09.190Z,13.40
2017-11-04T14:44:36.770Z,6.37
2017-11-04T14:47:04.311Z,8.47
2017-11-04T14:49:31.901Z,10.57
2017-11-04T14:51:59.445Z,8.43
2017-11-04T14:54:27.046Z,9.37
2017-11-04T14:56:54.632Z,7.10
2017-11-04T14:59:22.935Z,9.50
2017-11-04T15:01:50.509Z,6.90
2017-11-04T15:04:18.051Z,6.37
2017-11-04T15:06:45.640Z,7.27
2017-11-04T15:09:13.175Z,7.57
2017-11-04T15:11:40.760Z,7.47
2017-11-04T15:14:08.302Z,8.37
2017-11-04T15:16:35.880Z,6.13
2017-11-04T15:19:03.435Z,6.70
2017-11-04T15:21:31.017Z,9.53
2017-11-04T15:23:58.560Z,10.00
2017-11-04T15:26:26.206Z,26.13
2017-11-04T15:28:53.744Z,13.67
2017-11-04T15:31:21.321Z,12.60
2017-11-04T15:33:48.856Z,17.60
2017-11-04T15:36:17.196Z,17.23
2017-11-04T15:38:44.730Z,16.23
2017-11-04T15:41:12.300Z,11.07
2017-11-04T15:43:39.880Z,7.53
2017-11-04T15:46:07.464Z,8.77
2017-11-04T15:48:35.774Z,10.93
2017-11-04T15:51:03.312Z,10.60
2017-11-04T15:53:30.894Z,13.30
2017-11-04T15:55:58.429Z,12.63
2017-11-04T15:58:26.782Z,11.73
2017-11-04T16:00:54.320Z,14.63
2017-11-04T16:03:21.863Z,23.07
2017-11-04T16:05:49.437Z,10.33
2017-11-04T16:08:16.986Z,15.43
2017-11-04T16:10:44.576Z,10.90
2017-11-04T16:13:12.125Z,11.70
2017-11-04T16:15:40.432Z,8.33
2017-11-04T16:18:08.774Z,7.57
2017-11-04T16:20:36.317Z,10.83
2017-11-04T16:23:03.915Z,8.43
2017-11-04T16:25:31.453Z,8.73
2017-11-04T16:27:58.989Z,12.37
2017-11-04T16:30:26.568Z,8.23
2017-11-04T16:32:54.143Z,12.13
2017-11-04T16:35:21.735Z,8.20
2017-11-04T16:37:50.049Z,8.57
2017-11-04T16:40:17.597Z,11.00
2017-11-04T16:42:45.178Z,9.87
2017-11-04T16:45:12.721Z,9.23
2017-11-04T16:47:40.314Z,10.40
2017-11-04T16:50:07.900Z,14.83
2017-11-04T16:52:36.207Z,9.33
2017-11-04T16:55:03.796Z,9.90
2017-11-04T16:57:31.340Z,9.77
2017-11-04T16:59:58.920Z,9.43
2017-11-04T17:02:26.473Z,24.47
2017-11-04T17:04:54.102Z,33.30
2017-11-04T17:07:21.676Z,22.20
2017-11-04T17:09:49.266Z,21.80
2017-11-04T17:12:16.817Z,22.07
2017-11-04T17:14:44.357Z,24.50
2017-11-04T17:17:11.946Z,22.53
2017-11-04T17:19:39.486Z,20.00
2017-11-04T17:22:07.134Z,16.83
2017-11-04T17:24:34.717Z,18.40
2017-11-04T17:27:02.267Z,20.17
2017-11-04T17:29:29.907Z,16.47
2017-11-04T17:31:57.453Z,16.97
2017-11-04T17:34:25.791Z,13.07
2017-11-04T17:36:53.334Z,12.77
2017-11-04T17:39:20.917Z,11.13
2017-11-04T17:41:48.548Z,17.17
2017-11-04T17:44:16.088Z,16.67
2017-11-04T17:46:43.665Z,15.47
2017-11-04T17:49:11.281Z,15.87
2017-11-04T17:51:42.938Z,15.30
2017-11-04T17:54:10.523Z,23.70
2017-11-04T17:56:38.121Z,14.27
2017-11-04T17:59:05.773Z,12.27
2017-11-04T18:01:33.309Z,12.00
2017-11-04T18:04:00.848Z,14.13
2017-11-04T18:06:29.189Z,15.27
2017-11-04T18:08:56.832Z,13.90
2017-11-04T18:11:24.414Z,14.00
2017-11-04T18:13:52.013Z,17.10
2017-11-04T18:16:20.361Z,16.90
2017-11-04T18:18:47.948Z,16.97
2017-11-04T18:21:16.258Z,21.10
2017-11-04T18:23:43.801Z,16.23
2017-11-04T18:26:11.407Z,22.40
2017-11-04T18:28:39.017Z,17.87
2017-11-04T18:31:07.338Z,19.00
2017-11-04T18:33:34.881Z,16.63
2017-11-04T18:36:02.509Z,17.37
2017-11-04T18:38:30.821Z,18.27
2017-11-04T18:40:58.410Z,14.50
2017-11-04T18:43:25.959Z,16.83
2017-11-04T18:45:53.506Z,25.53
2017-11-04T18:48:21.092Z,20.17
2017-11-04T18:50:48.683Z,18.43
2017-11-04T18:53:17.019Z,18.13
2017-11-04T18:55:44.662Z,57.50
2017-11-04T18:58:12.204Z,42.37
2017-11-04T19:00:39.787Z,39.40
2017-11-04T19:03:07.326Z,33.23
2017-11-04T19:05:34.918Z,20.70
2017-11-04T19:08:02.461Z,25.83
2017-11-04T19:10:30.010Z,23.63
2017-11-04T19:12:57.596Z,19.10
2017-11-04T19:15:25.151Z,23.23
2017-11-04T19:17:52.745Z,19.87
2017-11-04T19:20:20.292Z,21.97
2017-11-04T19:22:47.848Z,24.27
2017-11-04T19:25:15.437Z,24.67
2017-11-04T19:27:43.027Z,20.20
2017-11-04T19:30:10.665Z,22.83
2017-11-04T19:32:39.060Z,22.73
2017-11-04T19:35:06.643Z,19.13
2017-11-04T19:37:34.218Z,19.13
2017-11-04T19:40:01.853Z,19.70
2017-11-04T19:42:31.206Z,25.00
2017-11-04T19:44:58.846Z,27.83
2017-11-04T19:47:26.436Z,18.63
2017-11-04T19:49:54.021Z,20.90
2017-11-04T19:52:22.387Z,22.97
2017-11-04T19:54:49.983Z,17.57
2017-11-04T19:57:17.614Z,16.90
2017-11-04T19:59:46.026Z,19.23
2017-11-04T20:02:13.628Z,20.83
2017-11-04T20:04:41.267Z,16.17
2017-11-04T20:07:08.864Z,20.13
2017-11-04T20:09:36.458Z,21.20
2017-11-04T20:12:04.041Z,21.80
2017-11-04T20:14:31.609Z,20.73
2017-11-04T20:16:59.236Z,22.40
2017-11-04T20:19:28.328Z,18.33
2017-11-04T20:21:56.731Z,17.70
2017-11-04T20:24:32.703Z,19.80
2017-11-04T20:27:00.250Z,22.07
2017-11-04T20:29:27.844Z,26.10
2017-11-04T20:31:55.461Z,25.13
2017-11-04T20:34:23.451Z,20.10
2017-11-04T20:36:53.176Z,19.53
2017-11-04T20:39:20.777Z,22.60
2017-11-04T20:41:49.308Z,19.90
2017-11-04T20:44:16.997Z,18.40
2017-11-04T20:46:44.601Z,22.17
2017-11-04T20:49:12.205Z,25.43
2017-11-04T20:51:39.837Z,23.77
2017-11-04T20:54:07.422Z,23.40
2017-11-04T20:56:35.013Z,26.53
2017-11-04T20:59:02.638Z,43.97
2017-11-04T21:01:30.232Z,18.43
2017-11-04T21:03:57.852Z,20.33
2017-11-04T21:06:25.450Z,19.33
2017-11-04T21:08:52.992Z,21.17
2017-11-04T21:11:20.755Z,18.40
2017-11-04T21:13:48.417Z,22.40
2017-11-04T21:16:16.055Z,22.00
2017-11-04T21:18:43.664Z,21.47
2017-11-04T21:21:11.279Z,16.90
2017-11-04T21:23:38.831Z,23.23
2017-11-04T21:26:06.418Z,21.90
2017-11-04T21:28:33.984Z,20.40
2017-11-04T21:31:01.525Z,28.43
2017-11-04T21:33:29.157Z,21.67
2017-11-04T21:35:56.787Z,20.30
2017-11-04T21:38:24.384Z,21.37
2017-11-04T21:40:52.016Z,22.23
2017-11-04T21:43:19.612Z,18.03
2017-11-04T21:45:47.202Z,22.07
2017-11-04T21:48:14.777Z,18.33
2017-11-04T21:50:42.358Z,19.50
2017-11-04T21:53:09.900Z,23.17
2017-11-04T21:55:38.335Z,15.43
2017-11-04T21:58:05.969Z,16.73
2017-11-04T22:00:34.342Z,15.20
2017-11-04T22:03:02.780Z,14.17
2017-11-04T22:05:30.724Z,16.90
2017-11-04T22:07:58.306Z,18.93
2017-11-04T22:10:25.899Z,17.67
2017-11-04T22:12:53.502Z,18.23
2017-11-04T22:15:21.088Z,17.00
2017-11-04T22:17:48.731Z,21.27
2017-11-04T22:20:16.365Z,18.57
2017-11-04T22:22:44.784Z,16.23
2017-11-04T22:25:12.330Z,18.73
2017-11-04T22:27:39.865Z,22.80
2017-11-04T22:30:08.898Z,16.37
2017-11-04T22:32:36.445Z,16.97
2017-11-04T22:35:03.993Z,15.23
2017-11-04T22:37:31.576Z,21.67
2017-11-04T22:39:59.165Z,16.17
2017-11-04T22:42:26.747Z,20.93
2017-11-04T22:44:54.286Z,16.60
2017-11-04T22:47:21.867Z,20.40
2017-11-04T22:49:50.226Z,16.77
2017-11-04T22:52:17.801Z,16.40
2017-11-04T22:54:45.345Z,16.90
2017-11-04T22:57:12.944Z,17.30
2017-11-04T22:59:41.240Z,16.80
2017-11-04T23:02:08.820Z,15.67
2017-11-04T23:04:36.363Z,16.33
2017-11-04T23:07:03.990Z,22.37
2017-11-04T23:09:32.293Z,17.27
2017-11-04T23:11:59.874Z,17.10
2017-11-04T23:14:27.417Z,22.47
2017-11-04T23:16:55.017Z,18.83
2017-11-04T23:19:22.560Z,19.83
2017-11-04T23:21:50.102Z,15.77
2017-11-04T23:24:17.681Z,14.53
2017-11-04T23:26:45.226Z,19.90
2017-11-04T23:29:12.805Z,18.23
2017-11-04T23:31:40.341Z,17.23
2017-11-04T23:34:07.921Z,17.70
2017-11-04T23:36:35.457Z,18.20
2017-11-04T23:39:03.042Z,16.80
2017-11-04T23:41:30.580Z,15.87
2017-11-04T23:43:58.158Z,18.07
2017-11-04T23:46:25.697Z,16.40
2017-11-04T23:48:53.282Z,14.20
2017-11-04T23:51:20.816Z,14.60
2017-11-04T23:53:48.388Z,14.60
2017-11-04T23:56:15.926Z,15.17
2017-11-04T23:58:43.513Z,14.73
